sensor_id;sensor_type;location;lat;lon;timestamp;temperature;humidity
64111;DHT22;50401;48.188;11.566;2023-05-10T00:45:42;15.23;85.07
64111;DHT22;50401;48.188;11.566;2023-05-10T00:48:08;15.23;84.95
64111;DHT22;50401;48.188;11.566;2023-05-10T00:50:33;15.18;84.61
64111;DHT22;50401;48.188;11.566;2023-05-10T00:52:58;15.15;84.78
64111;DHT22;50401;48.188;11.566;2023-05-10T00:55:24;15.15;84.91
64111;DHT22;50401;48.188;11.566;2023-05-10T00:57:50;15.13;84.96
64111;DHT22;50401;48.188;11.566;2023-05-10T01:00:16;15.09;84.76
64111;DHT22;50401;48.188;11.566;2023-05-10T01:02:44;15.11;84.88
64111;DHT22;50401;48.188;11.566;2023-05-10T01:05:09;15.06;84.51
64111;DHT22;50401;48.188;11.566;2023-05-10T01:07:35;15.12;84.70
64111;DHT22;50401;48.188;11.566;2023-05-10T01:10:00;15.12;85.05
64111;DHT22;50401;48.188;11.566;2023-05-10T01:15:11;14.99;85.38
64111;DHT22;50401;48.188;11.566;2023-05-10T01:17:38;14.98;85.35
64111;DHT22;50401;48.188;11.566;2023-05-10T01:20:04;14.95;85.42
64111;DHT22;50401;48.188;11.566;2023-05-10T01:27:47;14.81;85.46
64111;DHT22;50401;48.188;11.566;2023-05-10T01:32:47;14.71;85.44
64111;DHT22;50401;48.188;11.566;2023-05-10T01:37:42;14.83;85.63
64111;DHT22;50401;48.188;11.566;2023-05-10T01:40:30;14.87;85.57
64111;DHT22;50401;48.188;11.566;2023-05-10T01:42:54;14.76;85.13
64111;DHT22;50401;48.188;11.566;2023-05-10T01:45:27;14.84;85.30
64111;DHT22;50401;48.188;11.566;2023-05-10T01:47:56;14.80;85.29
64111;DHT22;50401;48.188;11.566;2023-05-10T01:50:24;14.87;85.29
64111;DHT22;50401;48.188;11.566;2023-05-10T01:52:53;14.91;85.06
64111;DHT22;50401;48.188;11.566;2023-05-10T01:55:20;14.92;84.99
64111;DHT22;50401;48.188;11.566;2023-05-10T01:57:46;14.88;85.14
64111;DHT22;50401;48.188;11.566;2023-05-10T02:00:11;14.87;85.00
64111;DHT22;50401;48.188;11.566;2023-05-10T02:02:45;14.88;84.99
64111;DHT22;50401;48.188;11.566;2023-05-10T02:05:11;14.81;85.03
64111;DHT22;50401;48.188;11.566;2023-05-10T02:07:37;14.74;85.16
64111;DHT22;50401;48.188;11.566;2023-05-10T02:10:02;14.76;85.21
64111;DHT22;50401;48.188;11.566;2023-05-10T02:12:29;14.71;85.01
64111;DHT22;50401;48.188;11.566;2023-05-10T02:14:55;14.74;85.08
64111;DHT22;50401;48.188;11.566;2023-05-10T02:17:22;14.81;85.15
64111;DHT22;50401;48.188;11.566;2023-05-10T02:19:48;14.78;85.11
64111;DHT22;50401;48.188;11.566;2023-05-10T02:22:14;14.80;85.23
64111;DHT22;50401;48.188;11.566;2023-05-10T02:24:40;14.84;85.21
64111;DHT22;50401;48.188;11.566;2023-05-10T02:27:06;14.87;84.99
64111;DHT22;50401;48.188;11.566;2023-05-10T02:29:31;14.87;84.84
64111;DHT22;50401;48.188;11.566;2023-05-10T02:31:57;14.63;85.34
64111;DHT22;50401;48.188;11.566;2023-05-10T02:34:25;14.71;85.27
64111;DHT22;50401;48.188;11.566;2023-05-10T02:36:50;14.70;85.14
64111;DHT22;50401;48.188;11.566;2023-05-10T02:39:17;14.76;85.20
64111;DHT22;50401;48.188;11.566;2023-05-10T02:41:43;14.66;85.20
64111;DHT22;50401;48.188;11.566;2023-05-10T02:44:10;14.67;84.90
64111;DHT22;50401;48.188;11.566;2023-05-10T02:46:36;14.69;85.41
64111;DHT22;50401;48.188;11.566;2023-05-10T02:49:02;14.71;85.37
64111;DHT22;50401;48.188;11.566;2023-05-10T02:51:28;14.60;85.46
64111;DHT22;50401;48.188;11.566;2023-05-10T02:53:56;14.60;85.38
64111;DHT22;50401;48.188;11.566;2023-05-10T02:56:28;14.67;85.45
64111;DHT22;50401;48.188;11.566;2023-05-10T02:58:56;14.74;85.42
64111;DHT22;50401;48.188;11.566;2023-05-10T03:01:22;14.74;85.41
64111;DHT22;50401;48.188;11.566;2023-05-10T03:03:47;14.73;85.26
64111;DHT22;50401;48.188;11.566;2023-05-10T03:06:12;14.69;85.24
64111;DHT22;50401;48.188;11.566;2023-05-10T03:08:38;14.71;85.35
64111;DHT22;50401;48.188;11.566;2023-05-10T03:13:48;14.74;85.56
64111;DHT22;50401;48.188;11.566;2023-05-10T03:16:16;14.76;85.52
64111;DHT22;50401;48.188;11.566;2023-05-10T03:21:11;14.69;85.43
64111;DHT22;50401;48.188;11.566;2023-05-10T03:23:50;14.59;85.73
64111;DHT22;50401;48.188;11.566;2023-05-10T03:26:26;14.60;85.39
64111;DHT22;50401;48.188;11.566;2023-05-10T03:28:52;14.60;85.69
64111;DHT22;50401;48.188;11.566;2023-05-10T03:31:18;14.69;85.47
64111;DHT22;50401;48.188;11.566;2023-05-10T03:33:47;14.73;85.28
64111;DHT22;50401;48.188;11.566;2023-05-10T03:36:13;14.74;85.00
64111;DHT22;50401;48.188;11.566;2023-05-10T03:38:38;14.77;85.11
64111;DHT22;50401;48.188;11.566;2023-05-10T03:41:04;14.73;85.16
64111;DHT22;50401;48.188;11.566;2023-05-10T03:43:29;14.70;85.41
64111;DHT22;50401;48.188;11.566;2023-05-10T03:45:54;14.73;85.40
64111;DHT22;50401;48.188;11.566;2023-05-10T03:48:20;14.76;85.36
64111;DHT22;50401;48.188;11.566;2023-05-10T03:50:45;14.78;85.45
64111;DHT22;50401;48.188;11.566;2023-05-10T03:53:10;14.81;85.36
64111;DHT22;50401;48.188;11.566;2023-05-10T03:55:36;14.76;85.36
64111;DHT22;50401;48.188;11.566;2023-05-10T03:58:01;14.80;85.44
64111;DHT22;50401;48.188;11.566;2023-05-10T04:00:27;14.84;85.44
64111;DHT22;50401;48.188;11.566;2023-05-10T04:02:52;14.76;85.77
64111;DHT22;50401;48.188;11.566;2023-05-10T04:05:17;14.81;85.80
64111;DHT22;50401;48.188;11.566;2023-05-10T04:07:43;14.78;85.83
64111;DHT22;50401;48.188;11.566;2023-05-10T04:10:09;14.80;85.83
64111;DHT22;50401;48.188;11.566;2023-05-10T04:12:34;14.77;85.74
64111;DHT22;50401;48.188;11.566;2023-05-10T04:15:00;14.73;85.68
64111;DHT22;50401;48.188;11.566;2023-05-10T04:17:26;14.80;85.56
64111;DHT22;50401;48.188;11.566;2023-05-10T04:19:51;14.85;85.44
64111;DHT22;50401;48.188;11.566;2023-05-10T04:22:19;14.83;85.34
64111;DHT22;50401;48.188;11.566;2023-05-10T04:24:45;14.83;85.45
64111;DHT22;50401;48.188;11.566;2023-05-10T04:27:10;14.81;85.75
64111;DHT22;50401;48.188;11.566;2023-05-10T04:29:36;14.84;85.65
64111;DHT22;50401;48.188;11.566;2023-05-10T04:32:02;14.87;85.88
64111;DHT22;50401;48.188;11.566;2023-05-10T04:34:28;14.88;85.72
64111;DHT22;50401;48.188;11.566;2023-05-10T04:36:54;14.89;85.67
64111;DHT22;50401;48.188;11.566;2023-05-10T04:39:19;14.85;85.70
64111;DHT22;50401;48.188;11.566;2023-05-10T04:41:45;14.71;86.23
64111;DHT22;50401;48.188;11.566;2023-05-10T04:44:10;14.78;86.35
64111;DHT22;50401;48.188;11.566;2023-05-10T04:46:35;14.83;86.48
64111;DHT22;50401;48.188;11.566;2023-05-10T04:49:01;14.84;86.36
64111;DHT22;50401;48.188;11.566;2023-05-10T04:51:26;14.74;85.78
64111;DHT22;50401;48.188;11.566;2023-05-10T04:53:52;14.73;85.80
64111;DHT22;50401;48.188;11.566;2023-05-10T04:56:17;14.63;86.11
64111;DHT22;50401;48.188;11.566;2023-05-10T04:58:42;14.63;86.29
64111;DHT22;50401;48.188;11.566;2023-05-10T05:01:08;14.56;86.38
64111;DHT22;50401;48.188;11.566;2023-05-10T05:03:34;14.56;86.54
64111;DHT22;50401;48.188;11.566;2023-05-10T05:05:59;14.59;86.65
64111;DHT22;50401;48.188;11.566;2023-05-10T05:08:25;14.64;86.69
64111;DHT22;50401;48.188;11.566;2023-05-10T05:10:50;14.45;86.68
64111;DHT22;50401;48.188;11.566;2023-05-10T05:13:16;14.43;86.52
64111;DHT22;50401;48.188;11.566;2023-05-10T05:15:41;14.35;86.44
64111;DHT22;50401;48.188;11.566;2023-05-10T05:18:07;14.29;86.47
64111;DHT22;50401;48.188;11.566;2023-05-10T05:20:32;14.25;86.47
64111;DHT22;50401;48.188;11.566;2023-05-10T05:22:59;14.28;86.49
64111;DHT22;50401;48.188;11.566;2023-05-10T05:25:24;14.17;86.18
64111;DHT22;50401;48.188;11.566;2023-05-10T05:27:49;14.17;86.40
64111;DHT22;50401;48.188;11.566;2023-05-10T05:30:15;14.11;86.53
64111;DHT22;50401;48.188;11.566;2023-05-10T05:32:40;14.14;86.64
64111;DHT22;50401;48.188;11.566;2023-05-10T05:35:05;14.22;86.27
64111;DHT22;50401;48.188;11.566;2023-05-10T05:37:31;13.90;86.35
64111;DHT22;50401;48.188;11.566;2023-05-10T05:39:57;14.01;85.93
64111;DHT22;50401;48.188;11.566;2023-05-10T05:42:22;13.95;85.83
64111;DHT22;50401;48.188;11.566;2023-05-10T05:44:47;13.98;85.92
64111;DHT22;50401;48.188;11.566;2023-05-10T05:47:13;14.10;85.68
64111;DHT22;50401;48.188;11.566;2023-05-10T05:52:18;14.04;85.49
64111;DHT22;50401;48.188;11.566;2023-05-10T05:54:44;14.05;85.50
64111;DHT22;50401;48.188;11.566;2023-05-10T05:57:09;14.15;85.66
64111;DHT22;50401;48.188;11.566;2023-05-10T05:59:34;14.29;85.19
64111;DHT22;50401;48.188;11.566;2023-05-10T06:02:00;14.30;85.02
64111;DHT22;50401;48.188;11.566;2023-05-10T06:04:28;14.47;84.91
64111;DHT22;50401;48.188;11.566;2023-05-10T06:06:53;14.37;84.89
64111;DHT22;50401;48.188;11.566;2023-05-10T06:09:19;14.52;84.64
64111;DHT22;50401;48.188;11.566;2023-05-10T06:11:44;14.57;84.60
64111;DHT22;50401;48.188;11.566;2023-05-10T06:14:10;14.63;84.74
64111;DHT22;50401;48.188;11.566;2023-05-10T06:19:25;14.66;84.84
64111;DHT22;50401;48.188;11.566;2023-05-10T06:21:51;14.70;84.93
64111;DHT22;50401;48.188;11.566;2023-05-10T06:24:16;14.81;84.77
64111;DHT22;50401;48.188;11.566;2023-05-10T06:26:41;14.87;84.57
64111;DHT22;50401;48.188;11.566;2023-05-10T06:29:07;14.77;84.42
64111;DHT22;50401;48.188;11.566;2023-05-10T06:31:32;14.71;84.88
64111;DHT22;50401;48.188;11.566;2023-05-10T06:33:57;14.78;84.88
64111;DHT22;50401;48.188;11.566;2023-05-10T06:36:22;14.83;84.92
64111;DHT22;50401;48.188;11.566;2023-05-10T06:38:49;14.96;84.35
64111;DHT22;50401;48.188;11.566;2023-05-10T06:41:16;14.95;83.92
64111;DHT22;50401;48.188;11.566;2023-05-10T06:43:41;14.95;83.92
64111;DHT22;50401;48.188;11.566;2023-05-10T06:46:08;14.94;84.22
64111;DHT22;50401;48.188;11.566;2023-05-10T06:48:33;15.04;84.14
64111;DHT22;50401;48.188;11.566;2023-05-10T06:50:59;14.96;84.57
64111;DHT22;50401;48.188;11.566;2023-05-10T06:53:24;15.21;84.00
64111;DHT22;50401;48.188;11.566;2023-05-10T06:55:49;15.43;83.54
64111;DHT22;50401;48.188;11.566;2023-05-10T06:58:14;15.57;82.36
64111;DHT22;50401;48.188;11.566;2023-05-10T07:00:40;15.75;82.13
64111;DHT22;50401;48.188;11.566;2023-05-10T07:03:08;16.01;81.28
64111;DHT22;50401;48.188;11.566;2023-05-10T07:05:33;16.30;79.94
64111;DHT22;50401;48.188;11.566;2023-05-10T07:07:59;16.24;79.80
64111;DHT22;50401;48.188;11.566;2023-05-10T07:10:24;16.23;79.68
64111;DHT22;50401;48.188;11.566;2023-05-10T07:12:50;16.24;79.58
64111;DHT22;50401;48.188;11.566;2023-05-10T07:15:15;16.27;80.21
64111;DHT22;50401;48.188;11.566;2023-05-10T07:17:40;16.51;79.32
64111;DHT22;50401;48.188;11.566;2023-05-10T07:20:06;16.99;78.55
64111;DHT22;50401;48.188;11.566;2023-05-10T07:22:31;17.40;77.33
64111;DHT22;50401;48.188;11.566;2023-05-10T07:24:57;17.79;76.60
64111;DHT22;50401;48.188;11.566;2023-05-10T07:27:22;17.71;76.20
64111;DHT22;50401;48.188;11.566;2023-05-10T07:29:47;17.43;76.42
64111;DHT22;50401;48.188;11.566;2023-05-10T07:32:13;17.20;76.74
64111;DHT22;50401;48.188;11.566;2023-05-10T07:34:38;17.08;76.52
64111;DHT22;50401;48.188;11.566;2023-05-10T07:37:04;17.12;76.30
64111;DHT22;50401;48.188;11.566;2023-05-10T07:39:29;17.16;76.38
64111;DHT22;50401;48.188;11.566;2023-05-10T07:41:57;18.23;73.96
64111;DHT22;50401;48.188;11.566;2023-05-10T07:44:22;17.79;73.86
64111;DHT22;50401;48.188;11.566;2023-05-10T07:46:48;17.52;74.38
64111;DHT22;50401;48.188;11.566;2023-05-10T07:49:14;17.37;75.23
64111;DHT22;50401;48.188;11.566;2023-05-10T07:51:39;17.16;75.54
64111;DHT22;50401;48.188;11.566;2023-05-10T07:54:04;16.95;75.53
64111;DHT22;50401;48.188;11.566;2023-05-10T07:56:30;17.02;75.55
64111;DHT22;50401;48.188;11.566;2023-05-10T07:58:57;17.08;75.13
64111;DHT22;50401;48.188;11.566;2023-05-10T08:01:22;17.10;74.93
64111;DHT22;50401;48.188;11.566;2023-05-10T08:03:47;17.09;74.56
64111;DHT22;50401;48.188;11.566;2023-05-10T08:06:14;17.34;74.23
64111;DHT22;50401;48.188;11.566;2023-05-10T08:08:40;17.64;73.16
64111;DHT22;50401;48.188;11.566;2023-05-10T08:11:05;18.77;69.70
64111;DHT22;50401;48.188;11.566;2023-05-10T08:13:31;20.14;66.22
64111;DHT22;50401;48.188;11.566;2023-05-10T08:15:56;21.38;64.04
64111;DHT22;50401;48.188;11.566;2023-05-10T08:18:21;20.88;63.14
64111;DHT22;50401;48.188;11.566;2023-05-10T08:20:47;21.04;63.00
64111;DHT22;50401;48.188;11.566;2023-05-10T08:23:12;20.85;63.53
64111;DHT22;50401;48.188;11.566;2023-05-10T08:25:38;20.53;62.35
64111;DHT22;50401;48.188;11.566;2023-05-10T08:28:06;19.98;63.72
64111;DHT22;50401;48.188;11.566;2023-05-10T08:30:38;19.06;65.44
64111;DHT22;50401;48.188;11.566;2023-05-10T08:33:04;18.69;67.94
64111;DHT22;50401;48.188;11.566;2023-05-10T08:35:32;18.23;68.59
64111;DHT22;50401;48.188;11.566;2023-05-10T08:38:02;17.81;69.45
64111;DHT22;50401;48.188;11.566;2023-05-10T08:40:27;17.72;69.56
64111;DHT22;50401;48.188;11.566;2023-05-10T08:43:04;17.64;69.77
64111;DHT22;50401;48.188;11.566;2023-05-10T08:45:32;17.45;70.96
64111;DHT22;50401;48.188;11.566;2023-05-10T08:47:59;17.38;71.28
64111;DHT22;50401;48.188;11.566;2023-05-10T08:50:26;17.13;71.97
64111;DHT22;50401;48.188;11.566;2023-05-10T08:52:51;17.34;71.75
64111;DHT22;50401;48.188;11.566;2023-05-10T08:55:18;17.47;71.03
64111;DHT22;50401;48.188;11.566;2023-05-10T08:57:43;17.47;70.86
64111;DHT22;50401;48.188;11.566;2023-05-10T09:00:09;17.54;70.86
64111;DHT22;50401;48.188;11.566;2023-05-10T09:02:35;17.99;69.61
64111;DHT22;50401;48.188;11.566;2023-05-10T09:05:01;17.99;69.32
64111;DHT22;50401;48.188;11.566;2023-05-10T09:07:28;18.99;67.23
64111;DHT22;50401;48.188;11.566;2023-05-10T09:09:54;19.62;65.27
64111;DHT22;50401;48.188;11.566;2023-05-10T09:12:22;20.21;64.82
64111;DHT22;50401;48.188;11.566;2023-05-10T09:14:48;20.07;64.43
64111;DHT22;50401;48.188;11.566;2023-05-10T09:17:17;19.96;64.62
64111;DHT22;50401;48.188;11.566;2023-05-10T09:19:42;19.76;64.05
64111;DHT22;50401;48.188;11.566;2023-05-10T09:22:07;19.21;65.10
64111;DHT22;50401;48.188;11.566;2023-05-10T09:24:33;18.75;65.76
64111;DHT22;50401;48.188;11.566;2023-05-10T09:26:58;18.40;66.80
64111;DHT22;50401;48.188;11.566;2023-05-10T09:29:24;17.96;68.09
64111;DHT22;50401;48.188;11.566;2023-05-10T09:31:50;17.96;68.44
64111;DHT22;50401;48.188;11.566;2023-05-10T09:34:19;17.83;68.31
64111;DHT22;50401;48.188;11.566;2023-05-10T09:36:52;17.62;68.38
64111;DHT22;50401;48.188;11.566;2023-05-10T09:39:17;17.48;69.23
64111;DHT22;50401;48.188;11.566;2023-05-10T09:41:43;17.52;69.46
64111;DHT22;50401;48.188;11.566;2023-05-10T09:44:08;17.48;69.07
64111;DHT22;50401;48.188;11.566;2023-05-10T09:46:36;17.51;69.13
64111;DHT22;50401;48.188;11.566;2023-05-10T09:49:02;17.87;68.46
64111;DHT22;50401;48.188;11.566;2023-05-10T09:51:30;17.99;68.55
64111;DHT22;50401;48.188;11.566;2023-05-10T09:54:08;18.07;68.42
64111;DHT22;50401;48.188;11.566;2023-05-10T09:57:00;18.09;69.01
64111;DHT22;50401;48.188;11.566;2023-05-10T09:59:26;18.10;68.88
64111;DHT22;50401;48.188;11.566;2023-05-10T10:01:53;18.24;68.29
64111;DHT22;50401;48.188;11.566;2023-05-10T10:04:20;18.23;67.44
64111;DHT22;50401;48.188;11.566;2023-05-10T10:07:02;18.28;67.22
64111;DHT22;50401;48.188;11.566;2023-05-10T10:09:28;18.14;66.71
64111;DHT22;50401;48.188;11.566;2023-05-10T10:11:53;18.26;66.09
64111;DHT22;50401;48.188;11.566;2023-05-10T10:14:18;18.45;65.12
64111;DHT22;50401;48.188;11.566;2023-05-10T10:16:44;18.69;64.50
64111;DHT22;50401;48.188;11.566;2023-05-10T10:19:09;18.89;63.27
64111;DHT22;50401;48.188;11.566;2023-05-10T10:21:35;18.59;64.13
64111;DHT22;50401;48.188;11.566;2023-05-10T10:24:03;18.63;63.82
64111;DHT22;50401;48.188;11.566;2023-05-10T10:26:30;18.63;63.73
64111;DHT22;50401;48.188;11.566;2023-05-10T10:31:49;19.10;63.10
64111;DHT22;50401;48.188;11.566;2023-05-10T10:34:26;19.34;62.69
64111;DHT22;50401;48.188;11.566;2023-05-10T10:36:55;19.48;62.68
64111;DHT22;50401;48.188;11.566;2023-05-10T10:39:21;19.38;61.72
64111;DHT22;50401;48.188;11.566;2023-05-10T10:42:02;19.28;62.61
64111;DHT22;50401;48.188;11.566;2023-05-10T10:50:21;19.00;62.58
64111;DHT22;50401;48.188;11.566;2023-05-10T10:52:26;19.13;62.50
64111;DHT22;50401;48.188;11.566;2023-05-10T10:57:31;19.27;61.83
64111;DHT22;50401;48.188;11.566;2023-05-10T11:07:51;18.89;63.58
64111;DHT22;50401;48.188;11.566;2023-05-10T11:10:19;18.90;63.21
64111;DHT22;50401;48.188;11.566;2023-05-10T11:15:32;18.71;62.76
64111;DHT22;50401;48.188;11.566;2023-05-10T11:17:57;18.54;62.89
64111;DHT22;50401;48.188;11.566;2023-05-10T11:20:23;18.69;62.21
64111;DHT22;50401;48.188;11.566;2023-05-10T11:22:54;18.71;62.74
64111;DHT22;50401;48.188;11.566;2023-05-10T11:25:19;18.58;63.22
64111;DHT22;50401;48.188;11.566;2023-05-10T11:27:46;18.65;63.51
64111;DHT22;50401;48.188;11.566;2023-05-10T11:30:12;18.54;64.82
64111;DHT22;50401;48.188;11.566;2023-05-10T11:32:38;18.31;66.23
64111;DHT22;50401;48.188;11.566;2023-05-10T11:35:12;18.11;68.49
64111;DHT22;50401;48.188;11.566;2023-05-10T11:37:41;17.69;70.92
64111;DHT22;50401;48.188;11.566;2023-05-10T11:40:08;17.47;71.51
64111;DHT22;50401;48.188;11.566;2023-05-10T11:42:36;17.17;71.87
64111;DHT22;50401;48.188;11.566;2023-05-10T11:45:02;17.13;72.11
64111;DHT22;50401;48.188;11.566;2023-05-10T11:47:28;17.08;72.90
64111;DHT22;50401;48.188;11.566;2023-05-10T11:49:53;16.98;74.19
64111;DHT22;50401;48.188;11.566;2023-05-10T11:52:19;16.74;75.69
64111;DHT22;50401;48.188;11.566;2023-05-10T11:54:45;16.75;76.17
64111;DHT22;50401;48.188;11.566;2023-05-10T11:57:18;16.78;76.66
64111;DHT22;50401;48.188;11.566;2023-05-10T11:59:43;16.69;77.41
64111;DHT22;50401;48.188;11.566;2023-05-10T12:02:09;16.63;76.70
64111;DHT22;50401;48.188;11.566;2023-05-10T12:04:34;16.44;76.76
64111;DHT22;50401;48.188;11.566;2023-05-10T12:07:00;16.48;76.55
64111;DHT22;50401;48.188;11.566;2023-05-10T12:09:26;16.43;76.70
64111;DHT22;50401;48.188;11.566;2023-05-10T12:11:54;16.51;76.37
64111;DHT22;50401;48.188;11.566;2023-05-10T12:14:20;16.44;76.58
64111;DHT22;50401;48.188;11.566;2023-05-10T12:16:47;16.53;76.71
64111;DHT22;50401;48.188;11.566;2023-05-10T12:19:12;16.43;77.19
64111;DHT22;50401;48.188;11.566;2023-05-10T12:21:37;16.44;77.42
64111;DHT22;50401;48.188;11.566;2023-05-10T12:24:04;16.47;77.44
64111;DHT22;50401;48.188;11.566;2023-05-10T12:26:30;16.46;77.71
64111;DHT22;50401;48.188;11.566;2023-05-10T12:29:11;16.46;77.92
64111;DHT22;50401;48.188;11.566;2023-05-10T12:31:48;16.37;78.30
64111;DHT22;50401;48.188;11.566;2023-05-10T12:34:22;16.41;78.01
64111;DHT22;50401;48.188;11.566;2023-05-10T12:36:49;16.47;78.19
64111;DHT22;50401;48.188;11.566;2023-05-10T12:39:15;16.48;78.43
64111;DHT22;50401;48.188;11.566;2023-05-10T12:41:40;16.44;78.62
64111;DHT22;50401;48.188;11.566;2023-05-10T12:44:05;16.50;78.92
64111;DHT22;50401;48.188;11.566;2023-05-10T12:46:31;16.51;78.86
64111;DHT22;50401;48.188;11.566;2023-05-10T12:48:56;16.53;79.04
64111;DHT22;50401;48.188;11.566;2023-05-10T12:51:21;16.43;78.40
64111;DHT22;50401;48.188;11.566;2023-05-10T12:53:47;16.46;78.45
64111;DHT22;50401;48.188;11.566;2023-05-10T12:56:13;16.43;78.18
64111;DHT22;50401;48.188;11.566;2023-05-10T12:58:38;16.46;78.15
64111;DHT22;50401;48.188;11.566;2023-05-10T13:01:04;16.37;77.12
64111;DHT22;50401;48.188;11.566;2023-05-10T13:03:30;16.30;76.10
64111;DHT22;50401;48.188;11.566;2023-05-10T13:05:55;16.32;76.04
64111;DHT22;50401;48.188;11.566;2023-05-10T13:08:20;16.27;76.35
64111;DHT22;50401;48.188;11.566;2023-05-10T13:10:46;16.22;76.01
64111;DHT22;50401;48.188;11.566;2023-05-10T13:13:11;16.23;76.16
64111;DHT22;50401;48.188;11.566;2023-05-10T13:15:36;16.24;76.05
64111;DHT22;50401;48.188;11.566;2023-05-10T13:18:02;16.24;76.22
64111;DHT22;50401;48.188;11.566;2023-05-10T13:20:27;16.27;75.98
64111;DHT22;50401;48.188;11.566;2023-05-10T13:22:53;16.20;76.22
64111;DHT22;50401;48.188;11.566;2023-05-10T13:25:18;16.23;76.81
64111;DHT22;50401;48.188;11.566;2023-05-10T13:27:43;16.32;76.97
64111;DHT22;50401;48.188;11.566;2023-05-10T13:30:08;16.27;76.96
64111;DHT22;50401;48.188;11.566;2023-05-10T13:32:34;16.24;76.97
64111;DHT22;50401;48.188;11.566;2023-05-10T13:34:59;16.30;77.04
64111;DHT22;50401;48.188;11.566;2023-05-10T13:37:25;16.33;76.93
64111;DHT22;50401;48.188;11.566;2023-05-10T13:39:50;16.26;76.86
64111;DHT22;50401;48.188;11.566;2023-05-10T13:42:15;16.34;77.06
64111;DHT22;50401;48.188;11.566;2023-05-10T13:44:40;16.41;77.56
64111;DHT22;50401;48.188;11.566;2023-05-10T13:47:06;16.44;77.74
64111;DHT22;50401;48.188;11.566;2023-05-10T13:49:31;16.47;77.77
64111;DHT22;50401;48.188;11.566;2023-05-10T13:51:57;16.47;77.76
64111;DHT22;50401;48.188;11.566;2023-05-10T13:54:23;16.48;77.70
64111;DHT22;50401;48.188;11.566;2023-05-10T13:56:48;16.33;77.74
64111;DHT22;50401;48.188;11.566;2023-05-10T13:59:13;16.24;77.40
64111;DHT22;50401;48.188;11.566;2023-05-10T14:01:41;16.16;78.52
64111;DHT22;50401;48.188;11.566;2023-05-10T14:04:08;15.97;78.05
64111;DHT22;50401;48.188;11.566;2023-05-10T14:06:35;16.01;78.26
64111;DHT22;50401;48.188;11.566;2023-05-10T14:09:01;15.95;78.34
64111;DHT22;50401;48.188;11.566;2023-05-10T14:11:27;16.01;78.78
64111;DHT22;50401;48.188;11.566;2023-05-10T14:13:52;16.16;78.99
64111;DHT22;50401;48.188;11.566;2023-05-10T14:16:17;16.19;79.35
64111;DHT22;50401;48.188;11.566;2023-05-10T14:18:46;16.22;78.71
64111;DHT22;50401;48.188;11.566;2023-05-10T14:21:11;15.99;78.88
64111;DHT22;50401;48.188;11.566;2023-05-10T14:23:37;16.01;79.08
64111;DHT22;50401;48.188;11.566;2023-05-10T14:26:02;16.04;79.57
64111;DHT22;50401;48.188;11.566;2023-05-10T14:28:28;16.05;79.53
64111;DHT22;50401;48.188;11.566;2023-05-10T14:30:53;15.98;79.67
64111;DHT22;50401;48.188;11.566;2023-05-10T14:33:18;15.95;79.80
64111;DHT22;50401;48.188;11.566;2023-05-10T14:35:45;15.95;79.07
64111;DHT22;50401;48.188;11.566;2023-05-10T14:38:14;15.84;78.97
64111;DHT22;50401;48.188;11.566;2023-05-10T14:40:39;15.84;79.13
64111;DHT22;50401;48.188;11.566;2023-05-10T14:43:04;15.82;79.33
64111;DHT22;50401;48.188;11.566;2023-05-10T14:45:30;15.80;79.76
64111;DHT22;50401;48.188;11.566;2023-05-10T14:47:56;15.75;79.20
64111;DHT22;50401;48.188;11.566;2023-05-10T14:50:21;15.70;79.19
64111;DHT22;50401;48.188;11.566;2023-05-10T14:52:47;15.64;79.68
64111;DHT22;50401;48.188;11.566;2023-05-10T14:55:12;15.50;79.24
64111;DHT22;50401;48.188;11.566;2023-05-10T14:57:38;15.46;79.19
64111;DHT22;50401;48.188;11.566;2023-05-10T15:00:03;15.39;79.32
64111;DHT22;50401;48.188;11.566;2023-05-10T15:02:30;15.42;79.32
64111;DHT22;50401;48.188;11.566;2023-05-10T15:05:52;15.42;79.98
64111;DHT22;50401;48.188;11.566;2023-05-10T15:08:18;15.37;80.31
64111;DHT22;50401;48.188;11.566;2023-05-10T15:10:43;15.36;80.11
64111;DHT22;50401;48.188;11.566;2023-05-10T15:13:09;15.39;80.17
64111;DHT22;50401;48.188;11.566;2023-05-10T15:15:34;15.28;80.02
64111;DHT22;50401;48.188;11.566;2023-05-10T15:17:59;15.21;79.82
64111;DHT22;50401;48.188;11.566;2023-05-10T15:22:55;15.12;80.41
64111;DHT22;50401;48.188;11.566;2023-05-10T15:25:20;15.21;80.72
64111;DHT22;50401;48.188;11.566;2023-05-10T15:27:46;15.18;80.70
64111;DHT22;50401;48.188;11.566;2023-05-10T15:30:11;15.12;80.31
64111;DHT22;50401;48.188;11.566;2023-05-10T15:32:37;15.05;80.64
64111;DHT22;50401;48.188;11.566;2023-05-10T15:35:05;15.08;80.88
64111;DHT22;50401;48.188;11.566;2023-05-10T15:37:33;15.08;81.06
64111;DHT22;50401;48.188;11.566;2023-05-10T15:39:59;15.16;81.26
64111;DHT22;50401;48.188;11.566;2023-05-10T15:42:31;15.13;81.36
64111;DHT22;50401;48.188;11.566;2023-05-10T15:44:57;15.12;81.48
64111;DHT22;50401;48.188;11.566;2023-05-10T15:47:22;15.22;81.31
64111;DHT22;50401;48.188;11.566;2023-05-10T15:49:48;15.11;81.02
64111;DHT22;50401;48.188;11.566;2023-05-10T15:52:13;15.09;80.97
64111;DHT22;50401;48.188;11.566;2023-05-10T15:54:39;14.98;81.02
64111;DHT22;50401;48.188;11.566;2023-05-10T15:57:04;14.91;81.37
64111;DHT22;50401;48.188;11.566;2023-05-10T15:59:31;14.85;81.64
64111;DHT22;50401;48.188;11.566;2023-05-10T16:01:57;14.81;81.79
64111;DHT22;50401;48.188;11.566;2023-05-10T16:04:22;14.74;81.36
64111;DHT22;50401;48.188;11.566;2023-05-10T16:06:48;14.63;81.95
64111;DHT22;50401;48.188;11.566;2023-05-10T16:09:13;14.59;81.73
64111;DHT22;50401;48.188;11.566;2023-05-10T16:11:41;14.63;81.44
64111;DHT22;50401;48.188;11.566;2023-05-10T16:14:07;14.64;80.61
64111;DHT22;50401;48.188;11.566;2023-05-10T16:16:32;14.71;80.45
64111;DHT22;50401;48.188;11.566;2023-05-10T16:18:58;14.76;80.58
64111;DHT22;50401;48.188;11.566;2023-05-10T16:21:25;14.76;80.62
64111;DHT22;50401;48.188;11.566;2023-05-10T16:23:51;14.69;80.67
64111;DHT22;50401;48.188;11.566;2023-05-10T16:26:17;14.59;80.58
64111;DHT22;50401;48.188;11.566;2023-05-10T16:28:42;14.55;81.08
64111;DHT22;50401;48.188;11.566;2023-05-10T16:31:07;14.59;81.41
64111;DHT22;50401;48.188;11.566;2023-05-10T16:33:33;14.63;81.08
64111;DHT22;50401;48.188;11.566;2023-05-10T16:35:58;14.66;80.82
64111;DHT22;50401;48.188;11.566;2023-05-10T16:38:23;14.60;80.97
64111;DHT22;50401;48.188;11.566;2023-05-10T16:40:49;14.69;80.97
64111;DHT22;50401;48.188;11.566;2023-05-10T16:43:14;14.66;81.01